Time;durP1;ratioP1;P1;durP2;ratioP2;P2;SDS_P1;SDS_P2;PMS_P1;PMS_P2;Temp;Humidity;BMP_temperature;BMP_pressure;BME280_temperature;BME280_humidity;BME280_pressure;Samples;Min_cycle;Max_cycle;Signal;HPM_P1;HPM_P2
2023/10/11 00:00:39;;;;;;;15.23;7.22;;;;;;;9.78;100.00;94411.69;5029666;28;20056;-63
2023/10/11 00:03:17;;;;;;;43.55;24.23;;;;;;;9.74;100.00;94412.88;5028543;28;20049;-63
2023/10/11 00:05:46;;;;;;;63.13;32.63;;;;;;;9.73;100.00;94414.03;5029970;28;20178;-63
2023/10/11 00:08:19;;;;;;;31.13;13.80;;;;;;;9.73;100.00;94409.34;5029535;28;20080;-63
2023/10/11 00:10:47;;;;;;;19.38;8.45;;;;;;;9.74;100.00;94412.88;5029882;28;20034;-63
2023/10/11 00:13:15;;;;;;;19.52;8.43;;;;;;;9.68;100.00;94407.03;5029396;28;20205;-63
2023/10/11 00:15:48;;;;;;;17.02;7.50;;;;;;;9.63;100.00;94409.38;5029719;28;20416;-63
2023/10/11 00:18:20;;;;;;;16.92;8.20;;;;;;;9.62;100.00;94405.88;5029496;28;20038;-63
2023/10/11 00:20:52;;;;;;;15.97;8.13;;;;;;;9.58;100.00;94407.84;5016510;28;20106;-63
2023/10/11 00:23:22;;;;;;;18.25;7.88;;;;;;;9.50;100.00;94400.84;5028492;28;20053;-63
2023/10/11 00:26:01;;;;;;;15.40;7.18;;;;;;;9.44;100.00;94416.09;5029874;28;20620;-63
2023/10/11 00:28:32;;;;;;;19.92;8.32;;;;;;;9.40;100.00;94405.16;5028929;28;20053;-63
2023/10/11 00:31:02;;;;;;;15.90;8.85;;;;;;;9.37;100.00;94405.94;5029910;28;20051;-63
2023/10/11 00:33:31;;;;;;;17.73;8.97;;;;;;;9.39;100.00;94401.63;5028288;28;20678;-63
2023/10/11 00:36:06;;;;;;;23.23;9.20;;;;;;;9.33;100.00;94399.69;5029233;28;20058;-63
2023/10/11 00:38:43;;;;;;;19.20;8.40;;;;;;;9.32;100.00;94404.41;5029373;28;20047;-63
2023/10/11 00:41:17;;;;;;;19.27;8.25;;;;;;;9.29;100.00;94396.97;5028721;28;20075;-63
2023/10/11 00:43:47;;;;;;;16.23;7.10;;;;;;;9.27;100.00;94398.53;5029046;28;20052;-63
2023/10/11 00:46:18;;;;;;;16.03;7.20;;;;;;;9.26;100.00;94394.25;5028900;28;20110;-63
2023/10/11 00:49:09;;;;;;;18.67;7.80;;;;;;;9.23;100.00;94389.56;5028141;28;20064;-63
2023/10/11 00:51:38;;;;;;;16.98;7.18;;;;;;;9.20;100.00;94394.63;5028353;28;20122;-64
2023/10/11 00:54:05;;;;;;;16.45;7.45;;;;;;;9.15;100.00;94392.28;5028512;28;20056;-63
2023/10/11 00:56:33;;;;;;;23.63;11.85;;;;;;;9.10;100.00;94392.72;5029364;28;20042;-63
2023/10/11 00:59:02;;;;;;;20.90;9.87;;;;;;;9.06;100.00;94391.16;5028785;28;20413;-64
2023/10/11 01:01:33;;;;;;;20.92;8.70;;;;;;;8.99;100.00;94383.72;5028252;28;20045;-63
2023/10/11 01:04:00;;;;;;;15.18;7.82;;;;;;;8.96;100.00;94390.00;5029237;28;20049;-64
2023/10/11 01:06:28;;;;;;;14.20;7.45;;;;;;;8.96;100.00;94392.75;5027278;28;20042;-64
2023/10/11 01:08:55;;;;;;;16.58;7.50;;;;;;;8.89;100.00;94390.00;5028740;28;20160;-63
2023/10/11 01:11:22;;;;;;;19.60;6.93;;;;;;;8.88;100.00;94385.72;5027166;28;20049;-63
2023/10/11 01:13:53;;;;;;;13.15;7.35;;;;;;;8.85;100.00;94386.47;5029065;28;20040;-64
2023/10/11 01:16:26;;;;;;;18.85;7.82;;;;;;;8.82;100.00;94388.06;5028436;28;20445;-63
2023/10/11 01:18:53;;;;;;;16.85;7.28;;;;;;;8.78;100.00;94382.59;5028802;28;20049;-63
2023/10/11 01:21:20;;;;;;;13.32;6.90;;;;;;;8.75;100.00;94377.91;5027096;28;20049;-64
2023/10/11 01:23:48;;;;;;;19.57;7.70;;;;;;;8.74;100.00;94381.81;5028033;28;20067;-63
2023/10/11 01:26:15;;;;;;;17.40;7.50;;;;;;;8.59;100.00;94382.97;5027929;28;20045;-63
2023/10/11 01:28:48;;;;;;;14.85;7.45;;;;;;;8.62;100.00;94379.47;5028307;28;20048;-64
2023/10/11 01:31:18;;;;;;;13.85;6.72;;;;;;;8.62;100.00;94368.53;5028094;28;20041;-63
2023/10/11 01:33:49;;;;;;;18.80;7.50;;;;;;;8.63;100.00;94369.31;5014959;28;20041;-63
2023/10/11 01:36:23;;;;;;;14.63;7.17;;;;;;;8.58;100.00;94374.00;5027668;28;20046;-63
2023/10/11 01:38:49;;;;;;;13.65;6.97;;;;;;;8.51;100.00;94370.47;5028646;28;20048;-64
2023/10/11 01:41:26;;;;;;;16.92;6.40;;;;;;;8.47;100.00;94375.16;5027926;28;20049;-63
2023/10/11 01:43:55;;;;;;;13.82;6.70;;;;;;;8.45;100.00;94372.03;5028384;28;20103;-64
2023/10/11 01:46:27;;;;;;;15.32;7.28;;;;;;;8.42;100.00;94372.84;5027427;28;20152;-63
2023/10/11 01:48:55;;;;;;;15.80;7.23;;;;;;;8.37;100.00;94371.22;5028399;28;20414;-63
2023/10/11 01:51:26;;;;;;;14.50;6.88;;;;;;;8.36;100.00;94366.94;5026246;28;20378;-63
2023/10/11 01:53:55;;;;;;;12.45;6.82;;;;;;;8.33;100.00;94376.72;5028327;28;20041;-63
2023/10/11 01:56:25;;;;;;;14.32;7.00;;;;;;;8.29;100.00;94370.47;5027811;28;20160;-63
2023/10/11 01:58:56;;;;;;;16.30;6.30;;;;;;;8.24;100.00;94370.06;5028287;28;20073;-63
2023/10/11 02:01:30;;;;;;;13.83;6.80;;;;;;;8.21;100.00;94371.63;5028109;28;20045;-64
2023/10/11 02:03:59;;;;;;;14.48;6.75;;;;;;;8.18;100.00;94370.44;5028299;28;20075;-63
2023/10/11 02:06:31;;;;;;;36.50;9.35;;;;;;;8.15;100.00;94373.19;5027942;28;20045;-63
2023/10/11 02:08:59;;;;;;;15.40;7.40;;;;;;;8.09;100.00;94369.25;5028317;28;20037;-64
2023/10/11 02:11:29;;;;;;;16.35;7.68;;;;;;;8.01;100.00;94360.28;5027546;28;20406;-63
2023/10/11 02:13:57;;;;;;;15.67;7.30;;;;;;;7.99;100.00;94362.59;5026660;28;20042;-63
2023/10/11 02:16:25;;;;;;;15.13;6.90;;;;;;;8.02;100.00;94356.34;5027425;28;20048;-63
2023/10/11 02:18:58;;;;;;;18.98;8.02;;;;;;;8.04;100.00;94361.44;5027862;28;20037;-64
2023/10/11 02:21:29;;;;;;;17.05;7.60;;;;;;;7.99;100.00;94362.59;5027574;28;20118;-63
2023/10/11 02:23:59;;;;;;;16.20;7.32;;;;;;;7.94;100.00;94361.03;5026505;28;20710;-63
2023/10/11 02:26:31;;;;;;;15.47;7.57;;;;;;;7.92;100.00;94360.63;5026468;28;20042;-63
2023/10/11 02:29:00;;;;;;;16.35;7.40;;;;;;;7.93;100.00;94366.91;5016893;28;20049;-64
2023/10/11 02:31:31;;;;;;;15.15;7.00;;;;;;;7.91;100.00;94361.81;5026137;28;20604;-64
2023/10/11 02:34:12;;;;;;;14.52;7.55;;;;;;;7.90;100.00;94357.50;5028023;28;20067;-64
2023/10/11 02:36:44;;;;;;;14.13;7.25;;;;;;;7.91;100.00;94366.50;5026950;28;20431;-63
2023/10/11 02:39:26;;;;;;;13.80;7.00;;;;;;;7.89;100.00;94372.34;5027299;28;20041;-63
2023/10/11 02:41:57;;;;;;;17.85;7.10;;;;;;;7.85;100.00;94362.56;5027357;28;20065;-63
2023/10/11 02:44:25;;;;;;;15.05;7.55;;;;;;;7.77;100.00;94372.72;5027029;28;20551;-63
2023/10/11 02:46:53;;;;;;;17.58;7.47;;;;;;;7.78;100.00;94357.88;5031462;28;20041;-63
2023/10/11 02:49:20;;;;;;;17.98;7.60;;;;;;;7.80;100.00;94372.69;5031194;28;20053;-63
2023/10/11 02:51:55;;;;;;;16.27;7.17;;;;;;;7.78;100.00;94360.59;5031275;28;20038;-64
2023/10/11 02:54:39;;;;;;;17.48;7.80;;;;;;;7.72;100.00;94360.19;5030832;28;20049;-63
2023/10/11 02:57:21;;;;;;;15.07;7.50;;;;;;;7.68;100.00;94361.34;5030939;28;20056;-63
2023/10/11 02:59:51;;;;;;;13.48;7.10;;;;;;;7.68;100.00;94364.09;5018964;28;20049;-64
2023/10/11 03:02:21;;;;;;;14.32;7.30;;;;;;;7.64;100.00;94360.56;5029447;28;20049;-63
2023/10/11 03:04:49;;;;;;;15.27;7.20;;;;;;;7.60;100.00;94371.47;5031318;28;20514;-63
2023/10/11 03:07:21;;;;;;;15.35;7.10;;;;;;;7.61;100.00;94370.31;5030301;28;20462;-63
2023/10/11 03:09:49;;;;;;;16.50;7.78;;;;;;;7.54;100.00;94365.59;5031094;28;20678;-64
2023/10/11 03:12:38;;;;;;;16.13;7.47;;;;;;;7.56;100.00;94363.25;5030450;28;20064;-63
2023/10/11 03:15:08;;;;;;;14.27;7.25;;;;;;;7.55;100.00;94360.94;5030466;28;20045;-63
2023/10/11 03:17:41;;;;;;;15.13;7.10;;;;;;;7.53;100.00;94357.81;5030714;28;20033;-63
2023/10/11 03:20:44;;;;;;;13.82;7.22;;;;;;;7.53;100.00;94363.25;5030278;28;20049;-63
2023/10/11 03:23:10;;;;;;;15.38;6.78;;;;;;;7.54;100.00;94356.63;5027614;28;20159;-62
2023/10/11 03:25:38;;;;;;;13.85;7.10;;;;;;;7.53;100.00;94355.84;5030546;28;20041;-63
2023/10/11 03:28:05;;;;;;;17.33;7.47;;;;;;;7.52;100.00;94364.41;5030444;28;20492;-63
2023/10/11 03:30:35;;;;;;;17.57;7.17;;;;;;;7.52;100.00;94358.97;5029015;28;20053;-64
2023/10/11 03:33:03;;;;;;;15.52;7.22;;;;;;;7.44;100.00;94352.69;5030698;28;20064;-64
2023/10/11 03:35:34;;;;;;;14.25;7.47;;;;;;;7.41;100.00;94353.47;5029813;28;20061;-64
2023/10/11 03:38:00;;;;;;;16.27;7.65;;;;;;;7.40;100.00;94352.69;5030666;28;20064;-64
2023/10/11 03:40:34;;;;;;;15.80;7.72;;;;;;;7.39;100.00;94350.34;5029332;28;20071;-63
2023/10/11 03:43:14;;;;;;;14.07;7.10;;;;;;;7.35;100.00;94350.31;5030287;28;20053;-64
2023/10/11 03:45:49;;;;;;;16.60;7.60;;;;;;;7.34;100.00;94359.66;5029856;28;20647;-64
2023/10/11 03:48:19;;;;;;;18.27;7.90;;;;;;;7.34;100.00;94347.97;5029033;28;20045;-64
2023/10/11 03:50:52;;;;;;;14.63;7.13;;;;;;;7.31;100.00;94346.78;5030475;28;20042;-64
2023/10/11 03:53:19;;;;;;;15.88;7.60;;;;;;;7.30;100.00;94353.41;5017188;28;20055;-64
2023/10/11 03:55:46;;;;;;;15.83;7.50;;;;;;;7.31;100.00;94354.22;5030758;28;20486;-64
2023/10/11 04:01:13;;;;;;;14.70;7.50;;;;;;;7.30;100.00;94345.22;5030453;28;20087;-64
2023/10/11 04:03:41;;;;;;;17.38;7.60;;;;;;;7.30;100.00;94347.94;5029341;28;21432;-64
2023/10/11 04:06:15;;;;;;;16.88;7.55;;;;;;;7.31;100.00;94340.56;5029451;28;20586;-64
2023/10/11 04:08:47;;;;;;;16.57;7.23;;;;;;;7.29;100.00;94346.41;5028618;28;20041;-64
2023/10/11 04:11:18;;;;;;;18.65;7.38;;;;;;;7.28;100.00;94346.78;5029574;28;20572;-64
2023/10/11 04:13:46;;;;;;;16.55;7.32;;;;;;;7.30;100.00;94341.72;5028500;28;20041;-64
2023/10/11 04:16:14;;;;;;;17.13;7.13;;;;;;;7.29;100.00;94342.88;5028727;28;20056;-64
2023/10/11 04:18:43;;;;;;;16.20;8.27;;;;;;;7.19;100.00;94342.44;5029298;28;20045;-67
2023/10/11 04:23:39;;;;;;;16.20;8.07;;;;;;;7.24;100.00;94345.97;5029316;28;20151;-64
2023/10/11 04:26:24;;;;;;;16.38;7.95;;;;;;;7.19;100.00;94338.94;5029515;28;20045;-63
2023/10/11 04:28:52;;;;;;;15.43;7.90;;;;;;;7.15;100.00;94344.38;5027933;28;20050;-64
2023/10/11 04:31:28;;;;;;;17.17;7.78;;;;;;;7.17;100.00;94349.47;5029099;28;20041;-63
2023/10/11 04:33:57;;;;;;;22.07;10.53;;;;;;;7.16;100.00;94348.69;5029627;28;20047;-64
2023/10/11 04:36:24;;;;;;;25.13;10.73;;;;;;;7.12;100.00;94349.81;5029382;28;20494;-64
2023/10/11 04:38:52;;;;;;;23.63;11.13;;;;;;;7.14;100.00;94348.28;5029531;28;20099;-65
2023/10/11 04:41:20;;;;;;;23.75;10.30;;;;;;;7.17;100.00;94352.97;5028837;28;20053;-64
2023/10/11 04:44:13;;;;;;;19.50;8.88;;;;;;;7.18;100.00;94353.75;5028678;28;20058;-65
2023/10/11 04:46:44;;;;;;;17.60;7.90;;;;;;;7.16;100.00;94354.16;5027364;28;20850;-65
2023/10/11 04:49:23;;;;;;;17.08;7.65;;;;;;;7.16;100.00;94356.88;5028226;28;20057;-64
2023/10/11 04:51:51;;;;;;;17.48;8.35;;;;;;;7.13;100.00;94352.16;5017757;28;20532;-65
2023/10/11 04:54:18;;;;;;;16.88;8.27;;;;;;;7.06;100.00;94348.63;5028544;28;20041;-65
2023/10/11 04:59:27;;;;;;;18.20;8.10;;;;;;;7.00;100.00;94350.94;5028354;28;20114;-64
2023/10/11 05:04:27;;;;;;;14.98;8.07;;;;;;;6.96;100.00;94355.59;5028235;28;20041;-65
2023/10/11 05:06:55;;;;;;;14.10;7.32;;;;;;;6.96;100.00;94353.66;5027911;28;20150;-66
2023/10/11 05:09:29;;;;;;;17.85;8.07;;;;;;;6.97;100.00;94354.44;5027269;28;20064;-65
2023/10/11 05:14:40;;;;;;;16.98;7.72;;;;;;;6.94;100.00;94371.56;5027709;28;20805;-66
2023/10/11 05:19:39;;;;;;;19.55;7.38;;;;;;;6.90;100.00;94360.63;5028808;28;20037;-64
2023/10/11 05:22:08;;;;;;;17.30;7.82;;;;;;;6.89;100.00;94366.47;5027932;28;20057;-63
2023/10/11 05:25:12;;;;;;;16.93;7.53;;;;;;;6.90;100.00;94360.63;5028785;28;20052;-64
2023/10/11 05:33:15;;;;;;;15.93;8.52;;;;;;;6.90;100.00;94359.84;5027354;28;20691;-64
2023/10/11 05:52:17;;;;;;;16.33;8.20;;;;;;;7.09;100.00;94372.44;5027542;28;20053;-62
2023/10/11 05:54:49;;;;;;;16.63;8.13;;;;;;;7.14;100.00;94372.06;5026621;28;20053;-62
2023/10/11 05:57:16;;;;;;;15.75;7.93;;;;;;;7.21;100.00;94372.09;5027765;28;20045;-62
2023/10/11 05:59:43;;;;;;;15.98;8.13;;;;;;;7.28;100.00;94369.38;5026496;28;20048;-63
2023/10/11 06:02:18;;;;;;;15.18;8.32;;;;;;;7.34;100.00;94367.84;5027671;28;20442;-62
2023/10/11 06:04:46;;;;;;;20.47;8.33;;;;;;;7.42;100.00;94374.13;5028220;28;20041;-62
2023/10/11 06:07:15;;;;;;;20.38;9.23;;;;;;;7.49;100.00;94374.16;5025891;28;20049;-63
2023/10/11 06:09:43;;;;;;;18.40;9.70;;;;;;;7.51;100.00;94373.78;5028390;28;20045;-62
2023/10/11 06:12:26;;;;;;;18.17;10.32;;;;;;;7.60;100.00;94376.94;5026242;28;20050;-63
2023/10/11 06:14:54;;;;;;;19.67;9.63;;;;;;;7.67;100.00;94371.50;5027519;28;20393;-63
2023/10/11 06:17:32;;;;;;;21.33;9.03;;;;;;;7.70;100.00;94367.22;5027348;28;20053;-63
2023/10/11 06:20:23;;;;;;;18.92;8.82;;;;;;;7.80;100.00;94375.44;5029165;28;20052;-63
2023/10/11 06:22:46;;;;;;;19.15;9.60;;;;;;;7.85;100.00;94379.75;5030503;28;21760;-63
2023/10/11 06:25:22;;;;;;;19.08;8.95;;;;;;;7.86;100.00;94384.03;5031173;28;20057;-62
2023/10/11 06:30:27;;;;;;;18.67;9.63;;;;;;;7.88;100.00;94370.78;5027033;28;20042;-63
2023/10/11 06:32:56;;;;;;;21.00;9.27;;;;;;;8.05;100.00;94385.66;5031872;28;20513;-63
2023/10/11 06:35:23;;;;;;;18.23;8.85;;;;;;;8.14;100.00;94375.13;5031229;28;20058;-62
2023/10/11 06:37:54;;;;;;;17.83;9.57;;;;;;;8.29;100.00;94378.66;5030981;28;20053;-63
2023/10/11 06:40:47;;;;;;;20.63;9.77;;;;;;;8.32;100.00;94377.09;5019369;28;20383;-63
2023/10/11 06:43:14;;;;;;;17.83;8.77;;;;;;;8.28;100.00;94376.31;5030768;28;20045;-62
2023/10/11 06:45:41;;;;;;;17.48;8.40;;;;;;;8.44;100.00;94376.72;5031629;28;20047;-62
2023/10/11 06:48:10;;;;;;;16.17;8.63;;;;;;;8.55;100.00;94387.66;5030891;28;20041;-62
2023/10/11 06:50:38;;;;;;;20.20;8.00;;;;;;;8.71;100.00;94376.31;5031421;28;20037;-62
2023/10/11 06:53:07;;;;;;;18.95;8.20;;;;;;;8.78;100.00;94379.06;5030938;28;20049;-62
2023/10/11 06:55:47;;;;;;;17.73;8.30;;;;;;;8.95;100.00;94381.03;5031869;28;20493;-63
2023/10/11 06:58:19;;;;;;;17.63;8.02;;;;;;;9.06;100.00;94380.22;5030594;28;20041;-62
2023/10/11 07:00:46;;;;;;;15.57;8.00;;;;;;;9.45;100.00;94380.09;5031457;28;20042;-63
2023/10/11 07:05:50;;;;;;;16.02;7.95;;;;;;;11.27;100.00;94373.75;5024718;28;20048;-63
2023/10/11 07:08:20;;;;;;;16.17;7.27;;;;;;;14.34;100.00;94366.41;5020121;28;20051;-63
2023/10/11 07:16:19;;;;;;;11.90;6.43;;;;;;;19.10;88.02;94352.69;5030731;28;20067;-64
2023/10/11 07:18:48;;;;;;;11.27;6.20;;;;;;;19.81;83.76;94355.69;5030851;28;20056;-64
2023/10/11 07:21:16;;;;;;;15.80;6.57;;;;;;;21.02;74.64;94354.13;5030739;28;20084;-64
2023/10/11 07:23:56;;;;;;;14.25;6.30;;;;;;;21.87;69.15;94351.88;5030662;28;20083;-64
2023/10/11 07:28:59;;;;;;;14.63;6.32;;;;;;;23.13;60.54;94354.25;5029512;28;20047;-64
2023/10/11 07:31:38;;;;;;;17.10;6.90;;;;;;;23.12;59.23;94352.72;5029482;28;20064;-64
2023/10/11 07:34:06;;;;;;;13.53;6.80;;;;;;;23.47;58.00;94359.53;5030724;28;20045;-64
2023/10/11 07:36:37;;;;;;;13.40;6.50;;;;;;;23.84;57.98;94361.78;5030740;28;20046;-64
2023/10/11 07:39:14;;;;;;;12.35;6.35;;;;;;;23.93;56.24;94367.25;5030208;28;20739;-64
2023/10/11 07:41:43;;;;;;;13.02;7.25;;;;;;;22.58;60.09;94376.50;5030328;28;20072;-64
2023/10/11 07:44:12;;;;;;;14.68;6.70;;;;;;;23.91;57.58;94364.94;5030327;28;20038;-63
2023/10/11 07:46:39;;;;;;;14.30;6.90;;;;;;;23.91;55.68;94359.34;5030428;28;20107;-64
2023/10/11 07:49:06;;;;;;;14.13;7.20;;;;;;;25.04;52.39;94351.94;5030003;28;20053;-63
2023/10/11 07:51:39;;;;;;;12.90;7.15;;;;;;;25.60;52.37;94357.16;5030147;28;20041;-64
2023/10/11 07:54:07;;;;;;;12.95;7.30;;;;;;;26.28;50.65;94357.41;5029286;28;20041;-63
2023/10/11 07:56:35;;;;;;;15.52;7.07;;;;;;;26.20;48.29;94354.31;5017258;28;20068;-64
2023/10/11 07:59:09;;;;;;;16.43;7.10;;;;;;;26.40;49.30;94356.16;5030064;28;20120;-64
2023/10/11 08:01:42;;;;;;;13.75;6.78;;;;;;;27.86;45.58;94351.66;5029389;28;20108;-64
2023/10/11 08:04:21;;;;;;;13.85;6.97;;;;;;;26.42;46.12;94347.97;5029785;28;20060;-64
2023/10/11 08:06:59;;;;;;;16.42;6.75;;;;;;;26.67;47.56;94354.66;5030408;28;20037;-64
2023/10/11 08:09:27;;;;;;;15.85;6.43;;;;;;;27.80;45.52;94353.72;5029571;28;20049;-64
2023/10/11 08:11:56;;;;;;;15.00;7.40;;;;;;;28.35;42.83;94342.69;5030306;28;20041;-64
2023/10/11 08:14:29;;;;;;;13.93;7.10;;;;;;;27.55;44.62;94341.50;5029429;28;20049;-64
2023/10/11 08:16:56;;;;;;;15.77;6.80;;;;;;;27.68;44.25;94342.47;5029606;28;20045;-64
2023/10/11 08:19:23;;;;;;;14.20;6.80;;;;;;;27.70;45.44;94348.38;5029459;28;24730;-64
2023/10/11 08:21:57;;;;;;;14.32;6.43;;;;;;;28.79;44.61;94333.16;5029328;28;20130;-65
2023/10/11 08:24:25;;;;;;;13.77;6.53;;;;;;;29.13;43.20;94340.63;5028268;28;20103;-65
2023/10/11 08:26:53;;;;;;;14.00;6.30;;;;;;;28.47;44.21;94341.31;5029992;28;20045;-65
2023/10/11 08:29:29;;;;;;;15.85;6.30;;;;;;;27.26;47.81;94338.75;5029381;28;20048;-65
2023/10/11 08:32:00;;;;;;;14.48;6.20;;;;;;;28.60;44.67;94321.75;5029718;28;20040;-65
2023/10/11 08:34:28;;;;;;;14.15;6.03;;;;;;;29.32;43.64;94320.88;5028869;28;20119;-64
2023/10/11 08:36:56;;;;;;;14.80;5.83;;;;;;;30.88;40.32;94327.09;5029516;28;20045;-64
2023/10/11 08:39:42;;;;;;;13.40;5.68;;;;;;;30.13;41.31;94328.72;5029464;28;22820;-65
2023/10/11 08:42:14;;;;;;;14.23;5.65;;;;;;;30.36;41.67;94323.50;5017655;28;20049;-64
2023/10/11 08:44:45;;;;;;;13.75;5.50;;;;;;;30.87;40.50;94334.84;5029197;28;20041;-64
2023/10/11 08:47:13;;;;;;;12.55;5.75;;;;;;;31.35;38.49;94326.56;5029148;28;20054;-64
2023/10/11 08:49:48;;;;;;;15.53;5.83;;;;;;;29.13;43.02;94324.41;5029107;28;20042;-64
2023/10/11 08:52:23;;;;;;;13.32;5.80;;;;;;;29.46;43.38;94340.28;5028382;28;20046;-63
2023/10/11 08:54:50;;;;;;;15.65;5.70;;;;;;;29.20;43.81;94337.22;5029023;28;20505;-63
2023/10/11 08:57:25;;;;;;;15.13;5.60;;;;;;;28.88;43.94;94335.66;5028836;28;20045;-63
2023/10/11 08:59:59;;;;;;;15.65;6.22;;;;;;;29.33;43.07;94330.91;5028689;28;20051;-64
2023/10/11 09:02:28;;;;;;;13.07;6.20;;;;;;;30.28;41.30;94331.81;5028221;28;20490;-63
2023/10/11 09:05:28;;;;;;;12.70;5.65;;;;;;;30.60;40.57;94325.47;5029231;28;20118;-63
2023/10/11 09:07:55;;;;;;;13.18;6.05;;;;;;;32.70;37.24;94323.81;5028043;28;20388;-63
2023/10/11 09:10:27;;;;;;;12.77;5.60;;;;;;;33.08;35.69;94322.63;5028479;28;20053;-63
2023/10/11 09:12:59;;;;;;;17.02;5.88;;;;;;;32.79;35.56;94316.88;5016181;28;20137;-64
2023/10/11 09:15:42;;;;;;;12.77;5.40;;;;;;;33.43;34.68;94318.38;5028708;28;20050;-63
2023/10/11 09:18:16;;;;;;;16.50;5.32;;;;;;;33.54;34.14;94320.16;5028572;28;20076;-63
2023/10/11 09:21:07;;;;;;;14.75;5.13;;;;;;;33.46;34.35;94319.34;5028716;28;20045;-63
2023/10/11 09:23:36;;;;;;;11.55;4.93;;;;;;;33.02;35.03;94317.06;5026807;28;20562;-64
2023/10/11 09:26:05;;;;;;;12.48;4.88;;;;;;;33.59;34.35;94320.00;5028696;28;20045;-64
2023/10/11 09:28:33;;;;;;;14.17;4.63;;;;;;;34.52;32.88;94320.50;5027276;28;20037;-64
2023/10/11 09:31:27;;;;;;;16.70;4.75;;;;;;;33.21;33.37;94329.03;5027225;28;20056;-64
2023/10/11 09:33:59;;;;;;;12.90;4.60;;;;;;;33.35;33.72;94326.84;5025233;28;21521;-64
2023/10/11 09:36:28;;;;;;;13.45;4.18;;;;;;;34.41;31.89;94330.91;5027862;28;20038;-63
2023/10/11 09:38:56;;;;;;;12.48;4.20;;;;;;;33.46;32.17;94336.41;5028288;28;20041;-64
2023/10/11 09:41:23;;;;;;;11.47;4.27;;;;;;;32.86;33.18;94324.72;5027664;28;20114;-63
2023/10/11 09:43:56;;;;;;;12.57;4.20;;;;;;;34.83;31.27;94324.19;5028476;28;20065;-63
2023/10/11 09:46:29;;;;;;;11.93;4.20;;;;;;;33.36;32.57;94316.25;5028210;28;20044;-63
2023/10/11 09:48:59;;;;;;;11.93;4.18;;;;;;;33.43;32.12;94324.84;5010744;28;20106;-63
2023/10/11 09:51:29;;;;;;;12.88;4.22;;;;;;;33.22;32.82;94326.94;5027839;28;20106;-63
2023/10/11 09:54:02;;;;;;;13.53;4.40;;;;;;;32.92;32.33;94321.72;5028200;28;20049;-63
2023/10/11 09:56:39;;;;;;;13.65;3.97;;;;;;;33.14;32.00;94320.44;5026494;28;20625;-63
2023/10/11 09:59:22;;;;;;;13.88;4.25;;;;;;;34.40;30.54;94317.97;5026420;28;20057;-63
2023/10/11 10:02:02;;;;;;;18.60;4.68;;;;;;;32.63;32.62;94319.56;5028121;28;20044;-63
2023/10/11 10:04:52;;;;;;;15.20;4.13;;;;;;;33.89;30.42;94318.69;5026641;28;20669;-63
2023/10/11 10:07:42;;;;;;;13.63;3.97;;;;;;;32.38;31.75;94319.09;5025940;28;20041;-63
2023/10/11 10:10:11;;;;;;;11.95;4.18;;;;;;;34.08;29.80;94315.53;5026572;28;20401;-63
2023/10/11 10:13:10;;;;;;;12.10;3.60;;;;;;;34.08;30.15;94320.50;5026339;28;20442;-63
2023/10/11 10:15:49;;;;;;;11.48;3.90;;;;;;;33.12;29.49;94323.84;4984679;28;21612;-63
2023/10/11 10:18:19;;;;;;;9.13;3.88;;;;;;;32.81;31.48;94317.84;5007840;28;20410;-64
2023/10/11 10:20:56;;;;;;;13.43;3.70;;;;;;;35.19;29.11;94317.59;5008414;28;20049;-64
2023/10/11 10:23:29;;;;;;;11.73;4.18;;;;;;;32.47;31.84;94317.84;5007849;28;20064;-64
2023/10/11 10:26:02;;;;;;;10.50;4.10;;;;;;;31.31;33.65;94326.09;5008500;28;20058;-64
2023/10/11 10:28:42;;;;;;;12.30;3.95;;;;;;;31.19;33.40;94312.16;5026988;28;20812;-64
2023/10/11 10:31:24;;;;;;;13.80;3.88;;;;;;;31.96;32.56;94304.75;5027486;28;20425;-64
2023/10/11 10:34:13;;;;;;;14.97;3.83;;;;;;;33.55;31.33;94308.22;5027749;28;20056;-64
2023/10/11 10:36:40;;;;;;;10.90;3.90;;;;;;;31.73;34.13;94312.94;5026628;28;20682;-64
2023/10/11 10:41:40;;;;;;;12.93;3.80;;;;;;;31.24;33.92;94308.44;5026235;28;20038;-64
2023/10/11 10:44:18;;;;;;;11.55;3.65;;;;;;;31.69;33.95;94297.56;5027677;28;20049;-63
2023/10/11 10:46:51;;;;;;;11.37;4.10;;;;;;;31.95;32.52;94299.59;5027727;28;20475;-64
2023/10/11 10:49:27;;;;;;;12.02;3.70;;;;;;;31.12;35.27;94303.53;5027640;28;20049;-64
2023/10/11 10:51:56;;;;;;;12.32;3.95;;;;;;;31.51;34.21;94296.38;5028068;28;20050;-64
2023/10/11 10:54:23;;;;;;;14.40;4.10;;;;;;;31.44;34.49;94292.88;5027030;28;20053;-64
2023/10/11 10:56:53;;;;;;;14.43;4.00;;;;;;;30.71;35.50;94302.63;5027969;28;20042;-64
2023/10/11 10:59:21;;;;;;;12.87;3.37;;;;;;;31.79;34.02;94292.97;5027166;28;20075;-64
2023/10/11 11:01:53;;;;;;;12.00;3.88;;;;;;;33.63;31.08;94282.69;5026662;28;20060;-64
2023/10/11 11:04:27;;;;;;;12.40;4.07;;;;;;;32.37;32.30;94282.72;5027097;28;20079;-64
2023/10/11 11:06:55;;;;;;;14.48;3.70;;;;;;;32.90;32.50;94282.50;5028602;28;20055;-64
2023/10/11 11:09:29;;;;;;;13.82;3.72;;;;;;;30.81;34.74;94275.41;5029399;28;20042;-64
2023/10/11 11:12:14;;;;;;;12.23;3.90;;;;;;;30.64;34.36;94278.53;5030538;28;20053;-64
2023/10/11 11:15:00;;;;;;;14.82;3.90;;;;;;;29.33;36.88;94263.06;5029089;28;20548;-64
2023/10/11 11:17:46;;;;;;;12.63;3.70;;;;;;;29.39;36.61;94269.41;5030595;28;20037;-63
2023/10/11 11:20:15;;;;;;;12.05;3.40;;;;;;;29.76;36.09;94265.13;5030488;28;20437;-64
2023/10/11 11:22:45;;;;;;;12.68;3.78;;;;;;;29.85;35.80;94267.59;5030484;28;20057;-64
2023/10/11 11:25:18;;;;;;;14.93;4.13;;;;;;;29.27;36.97;94260.28;5028951;28;20045;-64
2023/10/11 11:27:45;;;;;;;12.38;3.80;;;;;;;31.03;34.46;94253.69;5029867;28;20049;-63
2023/10/11 11:30:33;;;;;;;14.25;3.95;;;;;;;29.06;37.48;94263.56;5029818;28;20049;-63
2023/10/11 11:33:13;;;;;;;11.57;3.85;;;;;;;28.46;39.82;94250.22;5030981;28;20048;-63
2023/10/11 11:35:50;;;;;;;14.15;4.10;;;;;;;27.64;40.85;94251.75;5029898;28;20662;-65
2023/10/11 11:38:23;;;;;;;10.60;3.63;;;;;;;25.79;44.93;94247.84;5030324;28;20172;-63
2023/10/11 11:40:51;;;;;;;12.88;3.78;;;;;;;25.78;45.34;94240.69;5030840;28;20037;-63
2023/10/11 11:43:22;;;;;;;12.07;4.20;;;;;;;26.23;45.97;94229.50;5030139;28;20502;-63
2023/10/11 11:45:56;;;;;;;14.80;3.80;;;;;;;26.66;45.22;94231.31;5030417;28;20041;-64
2023/10/11 11:48:24;;;;;;;12.73;4.10;;;;;;;26.20;46.55;94236.19;5030186;28;20413;-63
2023/10/11 11:50:56;;;;;;;12.67;3.73;;;;;;;25.66;46.46;94230.69;5030481;28;20038;-63
2023/10/11 11:53:25;;;;;;;11.02;3.72;;;;;;;26.24;44.85;94227.47;5017130;28;20088;-63
2023/10/11 11:55:52;;;;;;;12.30;3.90;;;;;;;26.05;44.91;94225.16;5030010;28;20056;-64
2023/10/11 11:58:19;;;;;;;12.52;3.88;;;;;;;26.52;44.29;94230.25;5029689;28;20042;-63
2023/10/11 12:00:59;;;;;;;13.13;3.83;;;;;;;25.69;47.83;94226.84;5030204;28;20506;-63
2023/10/11 12:03:26;;;;;;;11.90;3.77;;;;;;;25.87;46.55;94220.75;5030338;28;20094;-63
2023/10/11 12:05:53;;;;;;;9.38;3.13;;;;;;;25.84;40.84;94213.34;5030330;28;20099;-64
2023/10/11 12:08:20;;;;;;;12.25;3.65;;;;;;;26.00;43.98;94213.91;5030084;28;20037;-63
2023/10/11 12:10:49;;;;;;;8.85;3.28;;;;;;;26.36;40.17;94209.31;5030018;28;20440;-63
2023/10/11 12:13:23;;;;;;;9.43;3.80;;;;;;;26.43;39.59;94210.84;5029699;28;20175;-63
2023/10/11 12:15:55;;;;;;;12.53;3.77;;;;;;;25.86;44.39;94208.00;5029950;28;20044;-63
2023/10/11 12:18:35;;;;;;;13.82;4.03;;;;;;;25.58;46.81;94219.19;5029253;28;20050;-63
2023/10/11 12:21:10;;;;;;;11.70;4.03;;;;;;;25.37;46.73;94209.41;5030395;28;20037;-64
2023/10/11 12:23:46;;;;;;;13.23;4.03;;;;;;;25.33;47.87;94209.63;5028197;28;21620;-63
2023/10/11 12:26:16;;;;;;;10.63;3.95;;;;;;;25.00;49.86;94211.03;5029523;28;20041;-63
2023/10/11 12:28:47;;;;;;;12.93;3.93;;;;;;;25.23;49.52;94211.94;5029703;28;20091;-63
2023/10/11 12:31:17;;;;;;;12.27;3.83;;;;;;;25.10;49.94;94208.78;5029463;28;20384;-64
2023/10/11 12:33:44;;;;;;;16.45;3.80;;;;;;;25.24;51.54;94207.06;5029335;28;20047;-64
2023/10/11 12:36:11;;;;;;;12.98;3.67;;;;;;;25.10;51.26;94208.78;5029139;28;20076;-63
2023/10/11 12:38:39;;;;;;;12.73;4.45;;;;;;;24.78;52.13;94208.88;5029654;28;20045;-64
2023/10/11 12:41:07;;;;;;;11.03;4.00;;;;;;;24.46;52.63;94194.88;5027971;28;20056;-62